Time;durP1;ratioP1;P1;durP2;ratioP2;P2;SDS_P1;SDS_P2;PMS_P1;PMS_P2;Temp;Humidity;BMP_temperature;BMP_pressure;BME280_temperature;BME280_humidity;BME280_pressure;Samples;Min_cycle;Max_cycle;Signal;HPM_P1;HPM_P2
2022/06/22 00:01:54;;;;;;;4.95;2.67;;;;;;;10.39;100.00;100643.50;5010493;28;20042;-78
2022/06/22 00:04:34;;;;;;;3.30;2.13;;;;;;;10.35;100.00;100645.34;5026460;28;20124;-78
2022/06/22 00:07:04;;;;;;;3.45;2.25;;;;;;;10.29;100.00;100644.59;4979896;28;20045;-77
2022/06/22 00:09:34;;;;;;;3.00;2.15;;;;;;;10.32;100.00;100647.16;4963789;28;20046;-78
2022/06/22 00:12:01;;;;;;;3.85;2.00;;;;;;;10.29;100.00;100647.22;5010499;28;20049;-77
2022/06/22 00:14:35;;;;;;;2.85;2.50;;;;;;;10.24;100.00;100647.31;4989437;28;20040;-79
2022/06/22 00:17:02;;;;;;;3.63;2.50;;;;;;;10.20;100.00;100652.66;5012141;28;20490;-77
2022/06/22 00:19:39;;;;;;;3.22;2.63;;;;;;;10.13;100.00;100644.84;5010020;28;20068;-78
2022/06/22 00:22:22;;;;;;;2.58;2.30;;;;;;;10.11;100.00;100654.56;5009366;28;20042;-77
2022/06/22 00:25:04;;;;;;;2.85;2.40;;;;;;;10.09;100.00;100639.66;5026321;28;20069;-77
2022/06/22 00:27:36;;;;;;;3.13;2.13;;;;;;;9.99;100.00;100643.34;4992634;28;20052;-79
2022/06/22 00:30:08;;;;;;;2.35;1.98;;;;;;;9.91;100.00;100651.41;4999223;28;20046;-79
2022/06/22 00:32:35;;;;;;;2.88;2.17;;;;;;;9.81;100.00;100652.47;5009090;28;20034;-77
2022/06/22 00:35:35;;;;;;;5.15;2.50;;;;;;;9.74;100.00;100654.34;5008863;28;20046;-78
2022/06/22 00:38:02;;;;;;;4.10;2.80;;;;;;;9.73;100.00;100649.09;4995213;28;20388;-78
2022/06/22 00:40:28;;;;;;;3.13;2.45;;;;;;;9.71;100.00;100659.69;4994157;28;20092;-77
2022/06/22 00:42:56;;;;;;;2.47;2.13;;;;;;;9.73;100.00;100649.97;4977463;28;20053;-78
2022/06/22 00:45:28;;;;;;;2.72;2.13;;;;;;;9.76;100.00;100644.66;5006327;28;20045;-78
2022/06/22 00:47:57;;;;;;;3.55;2.58;;;;;;;9.74;100.00;100643.78;5018010;28;20059;-79
2022/06/22 00:50:37;;;;;;;2.40;2.10;;;;;;;9.66;100.00;100644.81;5006037;28;20050;-77
2022/06/22 00:53:23;;;;;;;2.95;2.20;;;;;;;9.61;100.00;100647.56;5022573;28;20119;-79
2022/06/22 00:55:53;;;;;;;3.42;2.40;;;;;;;9.57;100.00;100649.34;4989268;28;20042;-78
2022/06/22 00:58:26;;;;;;;3.88;2.78;;;;;;;9.51;100.00;100654.75;5008996;28;20060;-77
2022/06/22 01:01:08;;;;;;;4.00;2.55;;;;;;;9.64;100.00;100651.91;5010641;28;20037;-77
2022/06/22 01:04:19;;;;;;;3.28;2.22;;;;;;;9.56;100.00;100646.75;4994277;28;20045;-77
2022/06/22 01:06:50;;;;;;;3.45;2.38;;;;;;;9.43;100.00;100638.19;4995776;28;20414;-77
2022/06/22 01:09:27;;;;;;;3.63;2.00;;;;;;;9.44;100.00;100631.13;5026090;28;20061;-77
2022/06/22 01:12:18;;;;;;;3.22;2.22;;;;;;;9.45;100.00;100625.84;4991434;28;20046;-78
2022/06/22 01:17:43;;;;;;;2.65;2.35;;;;;;;9.31;100.00;100628.69;4968759;28;20487;-79
2022/06/22 01:20:58;;;;;;;3.22;2.40;;;;;;;9.28;100.00;100626.09;4954319;28;20042;-80
2022/06/22 01:23:37;;;;;;;3.42;2.55;;;;;;;9.33;100.00;100620.75;4956416;28;20058;-79
2022/06/22 01:26:32;;;;;;;3.40;2.60;;;;;;;9.27;100.00;100619.09;4935250;28;20043;-79
2022/06/22 01:29:07;;;;;;;3.25;2.25;;;;;;;9.22;100.00;100620.91;4971188;28;20054;-79
2022/06/22 01:31:34;;;;;;;3.33;2.88;;;;;;;9.14;100.00;100617.53;4972263;28;20039;-79
2022/06/22 01:34:02;;;;;;;3.15;2.58;;;;;;;9.07;100.00;100623.78;4963174;28;20300;-79
2022/06/22 01:36:31;;;;;;;3.58;2.50;;;;;;;9.05;100.00;100614.16;4964511;28;20042;-79
2022/06/22 01:38:58;;;;;;;3.40;2.17;;;;;;;9.03;100.00;100611.56;4976538;28;20051;-79
2022/06/22 01:41:39;;;;;;;3.60;2.60;;;;;;;9.03;100.00;100611.56;4953288;28;20031;-79
2022/06/22 01:44:11;;;;;;;3.60;2.58;;;;;;;8.98;100.00;100608.97;4954989;28;20512;-79
2022/06/22 01:47:17;;;;;;;3.97;2.33;;;;;;;8.93;100.00;100604.69;4968631;28;20102;-79
2022/06/22 01:50:02;;;;;;;3.22;2.50;;;;;;;8.92;100.00;100610.84;4948618;28;20039;-79
2022/06/22 01:52:37;;;;;;;4.10;2.75;;;;;;;8.97;100.00;100603.72;4949616;28;20039;-79
2022/06/22 01:55:44;;;;;;;4.63;2.97;;;;;;;8.99;100.00;100599.31;4980011;28;20050;-79
2022/06/22 01:58:13;;;;;;;4.60;2.40;;;;;;;8.95;100.00;100595.84;4955047;28;20078;-79
2022/06/22 02:00:47;;;;;;;4.50;2.63;;;;;;;8.91;100.00;100588.91;4953254;28;20051;-79
2022/06/22 02:03:19;;;;;;;;;;;;;;;8.90;100.00;100594.19;4955409;28;20035;-79
2022/06/22 02:06:00;;;;;;;3.93;2.37;;;;;;;8.81;100.00;100599.56;4965835;28;19922;-79
2022/06/22 02:08:33;;;;;;;4.40;2.80;;;;;;;8.74;100.00;100597.06;4988961;28;20043;-79
2022/06/22 02:11:04;;;;;;;4.10;2.80;;;;;;;8.72;100.00;100596.19;4940735;28;20411;-79
2022/06/22 02:13:36;;;;;;;3.78;2.30;;;;;;;8.69;100.00;100593.59;4989614;28;20455;-79
2022/06/22 02:16:26;;;;;;;3.08;2.42;;;;;;;8.64;100.00;100603.31;4975223;28;20038;-79
2022/06/22 02:18:58;;;;;;;3.50;2.53;;;;;;;8.64;100.00;100598.03;4965086;28;20492;-79
2022/06/22 02:21:58;;;;;;;3.40;2.20;;;;;;;8.68;100.00;100594.50;4963249;28;20126;-79
2022/06/22 02:24:42;;;;;;;4.80;2.90;;;;;;;8.61;100.00;100597.22;4960736;28;20417;-79
2022/06/22 02:27:20;;;;;;;4.00;2.30;;;;;;;8.56;100.00;100596.41;4962759;28;20147;-79
2022/06/22 02:29:50;;;;;;;2.88;2.20;;;;;;;8.46;100.00;100600.94;4950028;28;20722;-79
2022/06/22 02:32:22;;;;;;;4.45;2.50;;;;;;;8.43;100.00;100588.69;4957037;28;20053;-79
2022/06/22 02:34:50;;;;;;;3.23;2.73;;;;;;;8.39;100.00;100596.63;4971136;28;20051;-79
2022/06/22 02:37:21;;;;;;;2.83;2.10;;;;;;;8.39;100.00;100602.75;4962657;28;20047;-80
2022/06/22 02:39:52;;;;;;;3.55;2.80;;;;;;;8.42;100.00;100601.88;4955513;28;20042;-81
2022/06/22 02:45:10;;;;;;;4.00;2.77;;;;;;;8.40;100.00;100590.47;4957699;28;20127;-80
2022/06/22 02:47:49;;;;;;;2.93;2.40;;;;;;;8.41;100.00;100590.47;4940886;28;20046;-79
2022/06/22 02:50:34;;;;;;;4.10;2.70;;;;;;;8.45;100.00;100589.53;4954248;28;20043;-79
2022/06/22 02:53:06;;;;;;;5.38;2.65;;;;;;;8.54;100.00;100588.53;4956696;28;20042;-79
2022/06/22 02:55:34;;;;;;;4.73;2.83;;;;;;;8.51;100.00;100583.31;4955421;28;20043;-79
2022/06/22 02:58:03;;;;;;;3.60;2.50;;;;;;;8.40;100.00;100588.69;4964051;28;20042;-80
2022/06/22 03:00:33;;;;;;;3.95;2.53;;;;;;;8.41;100.00;100585.22;4938706;28;20496;-79
2022/06/22 03:03:11;;;;;;;3.30;2.13;;;;;;;8.41;100.00;100579.94;4961209;28;20046;-79
2022/06/22 03:05:44;;;;;;;3.95;2.33;;;;;;;8.39;100.00;100573.81;4977713;28;20038;-80
2022/06/22 03:08:12;;;;;;;3.60;2.80;;;;;;;8.40;100.00;100578.16;4990050;28;20054;-81
2022/06/22 03:10:49;;;;;;;6.20;2.88;;;;;;;8.41;100.00;100585.22;4967985;28;20388;-81
2022/06/22 03:13:20;;;;;;;3.45;2.72;;;;;;;8.41;100.00;100581.72;4969105;28;20038;-79
2022/06/22 03:15:47;;;;;;;3.47;2.63;;;;;;;8.42;100.00;100583.44;4964114;28;20039;-79
2022/06/22 03:18:16;;;;;;;3.30;3.00;;;;;;;8.39;100.00;100580.84;4924766;28;20039;-80
2022/06/22 03:20:49;;;;;;;3.13;2.57;;;;;;;8.40;100.00;100579.94;4952080;28;20496;-81
2022/06/22 03:23:22;;;;;;;2.87;2.40;;;;;;;8.38;100.00;100576.47;4947409;28;20887;-80
2022/06/22 03:26:02;;;;;;;3.93;2.73;;;;;;;8.41;100.00;100571.19;4935192;28;20050;-81
2022/06/22 03:28:36;;;;;;;4.00;2.63;;;;;;;8.40;100.00;100567.66;4955695;28;20055;-79
2022/06/22 03:31:11;;;;;;;3.22;2.22;;;;;;;8.43;100.00;100558.84;4938993;28;20385;-79
2022/06/22 03:33:45;;;;;;;4.50;2.80;;;;;;;8.42;100.00;100555.34;4954490;28;20081;-80
2022/06/22 03:36:26;;;;;;;4.15;2.55;;;;;;;8.42;100.00;100565.88;4946613;28;20038;-80
2022/06/22 03:38:55;;;;;;;5.85;3.10;;;;;;;8.42;100.00;100568.53;4953710;28;20046;-79
2022/06/22 03:41:26;;;;;;;3.00;2.42;;;;;;;8.43;100.00;100564.13;4971845;28;20129;-80
2022/06/22 03:44:21;;;;;;;4.10;2.53;;;;;;;8.44;100.00;100558.84;4945264;28;20039;-80
2022/06/22 03:46:56;;;;;;;3.95;2.90;;;;;;;8.47;100.00;100560.53;4971094;28;20042;-79
2022/06/22 03:49:32;;;;;;;4.05;2.47;;;;;;;8.50;100.00;100544.72;4968521;28;20050;-79
2022/06/22 03:52:17;;;;;;;5.10;2.47;;;;;;;8.58;100.00;100545.50;4947986;28;20046;-79
2022/06/22 03:54:59;;;;;;;3.75;2.63;;;;;;;8.61;100.00;100549.81;4969202;28;20050;-79
2022/06/22 03:57:30;;;;;;;3.38;2.67;;;;;;;8.61;100.00;100542.78;4944604;28;20047;-78
2022/06/22 03:59:57;;;;;;;3.35;3.05;;;;;;;8.69;100.00;100543.56;4955553;28;20050;-79
2022/06/22 04:02:25;;;;;;;3.78;2.92;;;;;;;8.67;100.00;100532.19;4967803;28;20125;-80
2022/06/22 04:04:56;;;;;;;4.05;2.85;;;;;;;8.68;100.00;100530.41;4966366;28;20090;-79
2022/06/22 04:07:23;;;;;;;3.35;2.55;;;;;;;8.68;100.00;100530.41;4962785;28;20061;-79
2022/06/22 04:09:53;;;;;;;4.50;3.25;;;;;;;8.73;100.00;100528.56;4953408;28;20054;-80
2022/06/22 04:12:24;;;;;;;3.33;2.53;;;;;;;8.76;100.00;100527.69;4939330;28;20066;-80
2022/06/22 04:15:29;;;;;;;3.03;2.63;;;;;;;8.81;100.00;100524.06;4953419;28;20078;-80
2022/06/22 04:17:59;;;;;;;3.78;2.70;;;;;;;8.88;100.00;100528.34;4952845;28;20042;-80
2022/06/22 04:20:52;;;;;;;4.07;2.65;;;;;;;8.90;100.00;100529.19;4935537;28;20039;-80
2022/06/22 04:23:36;;;;;;;3.17;2.60;;;;;;;8.94;100.00;100528.25;4970541;28;20425;-79
2022/06/22 04:26:21;;;;;;;2.97;2.42;;;;;;;8.94;100.00;100525.63;4978526;28;20097;-79
2022/06/22 04:28:50;;;;;;;3.60;2.70;;;;;;;8.97;100.00;100524.69;4943246;28;20039;-79
2022/06/22 04:31:23;;;;;;;4.53;2.70;;;;;;;9.05;100.00;100514.88;4938172;28;20051;-78
2022/06/22 04:33:58;;;;;;;3.47;3.00;;;;;;;9.12;100.00;100518.31;4953977;28;20049;-79
2022/06/22 04:36:33;;;;;;;4.40;2.53;;;;;;;9.20;100.00;100524.31;4970348;28;20496;-81
2022/06/22 04:39:17;;;;;;;3.72;2.53;;;;;;;9.22;100.00;100526.03;4957803;28;20043;-79
2022/06/22 04:41:44;;;;;;;4.05;2.47;;;;;;;9.34;100.00;100534.63;4958979;28;20030;-79
2022/06/22 04:44:26;;;;;;;5.22;3.08;;;;;;;9.45;100.00;100536.19;4958798;28;20522;-78
2022/06/22 04:46:59;;;;;;;3.25;2.85;;;;;;;9.53;100.00;100534.28;4974527;28;21607;-79
2022/06/22 04:49:36;;;;;;;3.40;2.72;;;;;;;9.56;100.00;100536.84;4947583;28;20042;-79
2022/06/22 04:52:11;;;;;;;4.28;3.05;;;;;;;9.71;100.00;100532.19;4955366;28;20518;-79
2022/06/22 04:54:40;;;;;;;4.60;2.83;;;;;;;9.71;100.00;100540.09;4970491;28;20039;-79
2022/06/22 04:57:17;;;;;;;3.17;2.63;;;;;;;9.82;100.00;100536.34;4938823;28;20419;-79
2022/06/22 04:59:46;;;;;;;6.05;3.80;;;;;;;9.92;100.00;100541.44;4942466;28;20046;-79
2022/06/22 05:02:19;;;;;;;4.43;3.03;;;;;;;10.02;100.00;100543.03;4970007;28;20468;-79
2022/06/22 05:04:51;;;;;;;3.80;2.80;;;;;;;10.12;100.00;100550.72;4953358;28;20126;-79
2022/06/22 05:07:30;;;;;;;4.20;3.10;;;;;;;10.19;100.00;100561.16;4953689;28;20051;-79
2022/06/22 05:10:02;;;;;;;3.30;2.70;;;;;;;10.33;100.00;100561.75;4949818;28;20047;-79
2022/06/22 05:12:34;;;;;;;3.83;2.88;;;;;;;10.57;100.00;100553.31;4953284;28;20035;-79
2022/06/22 05:15:01;;;;;;;4.30;3.13;;;;;;;10.85;100.00;100558.84;4968830;28;20464;-79
2022/06/22 05:17:33;;;;;;;4.47;3.17;;;;;;;11.20;100.00;100558.00;4943581;28;20047;-79
2022/06/22 05:20:26;;;;;;;4.22;2.85;;;;;;;12.53;100.00;100551.75;4939347;28;20050;-78
2022/06/22 05:22:55;;;;;;;5.45;2.47;;;;;;;13.09;100.00;100548.22;4921874;29;20043;-78
2022/06/22 05:25:22;;;;;;;3.33;2.20;;;;;;;13.09;100.00;100557.03;4937515;29;20051;-79
2022/06/22 05:28:07;;;;;;;3.38;2.50;;;;;;;12.98;100.00;100561.81;4962814;28;20036;-79
2022/06/22 05:30:43;;;;;;;3.08;1.92;;;;;;;12.93;100.00;100569.91;4947770;29;20047;-79
2022/06/22 05:33:16;;;;;;;3.85;2.30;;;;;;;12.89;100.00;100573.59;4939914;29;20038;-79
2022/06/22 05:35:50;;;;;;;4.07;2.63;;;;;;;12.95;100.00;100562.81;4921486;29;20051;-78
2022/06/22 05:38:19;;;;;;;2.80;2.00;;;;;;;13.12;100.00;100574.66;4927777;29;20043;-79
2022/06/22 05:40:46;;;;;;;2.47;2.28;;;;;;;13.99;100.00;100575.22;4969673;28;20631;-79
2022/06/22 05:43:13;;;;;;;3.22;2.00;;;;;;;16.63;99.42;100566.09;4955166;28;20050;-79
2022/06/22 05:45:49;;;;;;;1.90;1.60;;;;;;;19.68;79.00;100560.59;4905946;29;20042;-79
2022/06/22 05:48:20;;;;;;;2.65;1.60;;;;;;;21.51;63.34;100571.38;4910247;29;20048;-79
2022/06/22 05:51:16;;;;;;;3.13;1.60;;;;;;;23.20;57.19;100563.88;4919637;29;20044;-80
2022/06/22 05:53:52;;;;;;;2.88;1.52;;;;;;;24.82;48.97;100573.75;4924967;28;20046;-80
2022/06/22 05:56:34;;;;;;;2.28;1.60;;;;;;;26.85;45.85;100585.28;4943110;28;20093;-80
2022/06/22 05:59:19;;;;;;;3.15;1.70;;;;;;;26.73;42.67;100581.81;4934406;29;20048;-79
2022/06/22 06:02:05;;;;;;;1.88;1.60;;;;;;;27.31;42.71;100579.25;4969491;28;20047;-80
2022/06/22 06:04:54;;;;;;;3.58;1.40;;;;;;;27.04;41.07;100577.22;4951437;28;20043;-79
2022/06/22 06:07:50;;;;;;;1.80;1.70;;;;;;;26.34;40.69;100586.19;4974653;28;20492;-80
2022/06/22 06:10:30;;;;;;;2.13;1.70;;;;;;;25.80;42.06;100581.81;4940559;28;20480;-80
2022/06/22 06:13:02;;;;;;;2.47;1.50;;;;;;;25.07;42.06;100575.31;4942550;28;20380;-81
2022/06/22 06:15:32;;;;;;;21.45;3.22;;;;;;;24.39;46.07;100576.34;4940907;28;20070;-80
2022/06/22 06:18:00;;;;;;;3.25;1.88;;;;;;;24.37;44.74;100573.72;4942517;28;20050;-79
2022/06/22 06:20:31;;;;;;;2.25;1.90;;;;;;;23.66;45.04;100582.03;4950693;28;20039;-79
2022/06/22 06:23:02;;;;;;;4.90;1.40;;;;;;;23.71;46.45;100577.13;4948286;29;20051;-79
2022/06/22 06:28:27;;;;;;;2.10;1.30;;;;;;;23.47;44.58;100578.00;4947057;29;20047;-79
2022/06/22 06:30:57;;;;;;;2.30;1.33;;;;;;;23.37;44.23;100568.00;4918404;29;20047;-79
2022/06/22 06:33:33;;;;;;;1.80;1.27;;;;;;;23.59;46.25;100570.81;4935549;29;20134;-81
2022/06/22 06:36:20;;;;;;;2.25;1.40;;;;;;;23.66;43.97;100571.25;4918782;29;20075;-80
2022/06/22 06:39:00;;;;;;;2.95;1.52;;;;;;;23.59;45.08;100570.81;4917865;29;20054;-80
2022/06/22 06:41:31;;;;;;;2.53;1.63;;;;;;;23.67;45.53;100568.41;4950040;29;20075;-79
2022/06/22 06:44:01;;;;;;;3.45;1.70;;;;;;;23.87;43.85;100570.44;4917981;29;20078;-79
2022/06/22 06:46:38;;;;;;;3.17;1.85;;;;;;;24.20;43.24;100576.88;4970954;28;20488;-80
2022/06/22 06:49:22;;;;;;;3.33;1.50;;;;;;;24.16;41.66;100570.00;4922090;29;20453;-79
2022/06/22 06:52:10;;;;;;;2.22;1.60;;;;;;;24.54;43.37;100566.13;4922993;28;20055;-80
2022/06/22 06:55:00;;;;;;;2.95;1.50;;;;;;;24.68;43.61;100566.75;4969765;28;20046;-80
2022/06/22 06:57:29;;;;;;;1.92;1.50;;;;;;;24.91;40.68;100551.38;4921761;29;20048;-81
2022/06/22 06:59:59;;;;;;;2.00;1.80;;;;;;;25.02;40.19;100563.13;4970631;28;20043;-80
2022/06/22 07:02:34;;;;;;;2.47;1.52;;;;;;;25.33;39.77;100558.78;4924713;29;20047;-80
2022/06/22 07:05:04;;;;;;;3.55;1.85;;;;;;;25.48;40.58;100555.66;4921957;29;20043;-80
2022/06/22 07:07:44;;;;;;;1.63;1.50;;;;;;;25.66;41.43;100558.63;4915598;29;20067;-81
2022/06/22 07:10:24;;;;;;;3.88;1.80;;;;;;;25.57;39.10;100555.84;4936934;29;20507;-80
2022/06/22 07:13:00;;;;;;;3.67;1.98;;;;;;;25.79;39.68;100550.34;4939212;29;20051;-80
2022/06/22 07:15:36;;;;;;;2.00;1.67;;;;;;;26.20;38.24;100552.16;4959349;28;20510;-79
2022/06/22 07:18:27;;;;;;;1.83;1.60;;;;;;;26.31;38.30;100545.78;4979924;23;20077;-78
2022/06/22 07:21:18;;;;;;;1.83;1.45;;;;;;;26.22;38.45;100555.59;5005214;28;20046;-77
2022/06/22 07:23:57;;;;;;;3.10;1.63;;;;;;;26.31;38.83;100556.63;4979580;28;20546;-78
2022/06/22 07:27:02;;;;;;;2.63;1.92;;;;;;;26.54;37.10;100554.63;4961551;28;20046;-76
2022/06/22 07:29:35;;;;;;;3.40;2.10;;;;;;;26.59;37.38;100555.09;4978266;28;20042;-76
2022/06/22 07:32:25;;;;;;;2.10;1.80;;;;;;;26.72;38.84;100554.84;4992357;28;20070;-77
2022/06/22 07:35:03;;;;;;;2.20;1.65;;;;;;;26.84;37.27;100549.19;4967678;28;20104;-77
2022/06/22 07:37:33;;;;;;;3.17;1.60;;;;;;;27.11;37.27;100553.97;4974544;28;20070;-78
2022/06/22 07:40:11;;;;;;;2.78;2.08;;;;;;;27.16;36.97;100553.56;4991279;28;20043;-76
2022/06/22 07:42:39;;;;;;;2.33;1.85;;;;;;;27.27;37.62;100544.44;4976552;28;20074;-76
2022/06/22 07:45:06;;;;;;;2.55;1.98;;;;;;;27.21;36.09;100549.41;4990676;28;20040;-78
2022/06/22 07:47:43;;;;;;;25.95;4.13;;;;;;;27.17;37.25;100549.84;4977154;28;20046;-77
2022/06/22 07:50:17;;;;;;;2.10;1.88;;;;;;;27.43;37.46;100551.00;4992470;28;20046;-77
2022/06/22 07:52:48;;;;;;;14.18;2.95;;;;;;;27.48;36.80;100545.16;4957835;28;20054;-76
2022/06/22 07:55:33;;;;;;;3.22;2.15;;;;;;;27.48;36.90;100540.56;4972888;28;20515;-77
2022/06/22 07:58:06;;;;;;;2.40;2.00;;;;;;;27.70;36.37;100539.47;4992059;28;20042;-78
2022/06/22 08:00:33;;;;;;;2.43;1.87;;;;;;;27.58;33.48;100540.59;4977451;28;20492;-78
2022/06/22 08:03:18;;;;;;;2.78;1.90;;;;;;;27.20;34.03;100549.56;4970422;28;20454;-77
2022/06/22 08:05:47;;;;;;;4.60;2.22;;;;;;;27.35;34.73;100547.31;4955493;28;20039;-77
2022/06/22 08:08:24;;;;;;;2.33;2.10;;;;;;;27.45;35.49;100545.44;5003129;28;20038;-77
2022/06/22 08:10:59;;;;;;;3.08;1.92;;;;;;;27.79;35.38;100537.72;4988153;28;20050;-78
2022/06/22 08:13:32;;;;;;;4.47;2.08;;;;;;;27.63;33.57;100540.16;4990791;28;20057;-79
2022/06/22 08:16:02;;;;;;;2.47;1.83;;;;;;;27.72;34.23;100536.59;4973219;28;20042;-78
2022/06/22 08:18:30;;;;;;;3.00;2.00;;;;;;;27.91;31.63;100531.13;4974287;28;20042;-77
2022/06/22 08:20:57;;;;;;;2.45;1.65;;;;;;;28.07;33.22;100537.81;4973066;28;20045;-77
2022/06/22 08:23:26;;;;;;;3.22;1.63;;;;;;;28.25;30.69;100536.03;5007880;28;20069;-76
2022/06/22 08:26:00;;;;;;;9.05;2.30;;;;;;;28.27;29.92;100521.31;4977437;28;20096;-76
2022/06/22 08:28:29;;;;;;;2.10;1.73;;;;;;;28.26;31.30;100532.34;4994097;28;20042;-78
2022/06/22 08:30:56;;;;;;;3.25;1.80;;;;;;;28.16;30.76;100528.78;5009815;28;20052;-77
2022/06/22 08:33:30;;;;;;;5.38;1.88;;;;;;;28.23;30.91;100540.75;4977875;28;20124;-77
2022/06/22 08:36:07;;;;;;;2.60;1.70;;;;;;;28.65;30.87;100538.47;4976782;28;20419;-78
2022/06/22 08:38:41;;;;;;;1.88;1.60;;;;;;;28.62;29.25;100535.22;4988745;28;20046;-77
2022/06/22 08:41:42;;;;;;;2.38;1.63;;;;;;;28.74;29.10;100531.28;4985366;28;20042;-77
2022/06/22 08:44:42;;;;;;;3.78;1.60;;;;;;;28.66;30.46;100525.75;4986183;28;20062;-76
2022/06/22 08:47:15;;;;;;;3.67;1.83;;;;;;;28.19;28.68;100532.06;4973108;28;20100;-77
2022/06/22 08:50:13;;;;;;;2.75;1.50;;;;;;;28.55;30.10;100526.81;4989160;28;20048;-77
2022/06/22 08:52:46;;;;;;;12.75;3.20;;;;;;;28.60;28.23;100525.34;4970278;28;20039;-77
2022/06/22 08:56:09;;;;;;;3.35;1.77;;;;;;;28.03;32.04;100529.13;4954779;28;20616;-77
2022/06/22 08:58:55;;;;;;;1.95;1.52;;;;;;;28.15;31.17;100535.22;4989442;28;20045;-78
2022/06/22 09:01:46;;;;;;;129.63;18.95;;;;;;;28.63;29.13;100529.63;4988989;28;20049;-77
2022/06/22 09:04:34;;;;;;;2.92;1.60;;;;;;;28.78;28.79;100530.84;4982348;28;20059;-77
2022/06/22 09:07:30;;;;;;;3.90;2.20;;;;;;;28.74;28.98;100532.13;4969196;28;20558;-76
2022/06/22 09:10:06;;;;;;;5.22;1.92;;;;;;;28.77;28.68;100528.28;4966620;28;20042;-78
2022/06/22 09:13:00;;;;;;;4.00;1.80;;;;;;;29.04;30.49;100524.69;4961701;28;20050;-76
2022/06/22 09:15:49;;;;;;;2.92;1.83;;;;;;;28.91;27.92;100525.03;4988046;28;20054;-77
2022/06/22 09:18:26;;;;;;;2.88;1.65;;;;;;;28.16;28.52;100523.34;4973030;28;20049;-77
2022/06/22 09:21:12;;;;;;;2.05;1.65;;;;;;;28.75;29.44;100513.94;4993076;28;20501;-76
2022/06/22 09:24:04;;;;;;;3.28;1.55;;;;;;;28.63;29.90;100520.63;4971430;28;20547;-78
2022/06/22 09:26:58;;;;;;;3.40;1.55;;;;;;;28.58;29.05;100519.19;4981821;28;20053;-77
2022/06/22 09:29:39;;;;;;;2.95;1.50;;;;;;;29.03;30.79;100523.84;4974033;28;20038;-77
2022/06/22 09:32:19;;;;;;;1.88;1.67;;;;;;;29.03;28.54;100529.28;4969302;28;20089;-77
2022/06/22 09:35:12;;;;;;;2.25;1.40;;;;;;;28.91;28.56;100526.91;4956670;28;20035;-77
2022/06/22 09:38:06;;;;;;;3.65;1.95;;;;;;;29.11;28.01;100533.94;5002163;28;20055;-77
2022/06/22 09:41:06;;;;;;;3.72;1.58;;;;;;;29.16;27.80;100535.19;4984452;28;20054;-77
2022/06/22 09:44:04;;;;;;;2.13;1.83;;;;;;;29.23;27.03;100537.28;4973353;28;20085;-78
2022/06/22 09:46:39;;;;;;;2.20;1.75;;;;;;;29.25;26.90;100529.81;4988971;28;20050;-77
2022/06/22 09:49:31;;;;;;;2.63;1.55;;;;;;;29.65;26.22;100535.66;4983242;28;20051;-77
2022/06/22 09:52:08;;;;;;;64.43;8.30;;;;;;;29.98;25.73;100534.03;4972944;28;20046;-77
2022/06/22 09:57:38;;;;;;;2.55;1.65;;;;;;;29.70;26.09;100521.59;4989819;28;20491;-77
2022/06/22 10:00:11;;;;;;;2.90;1.80;;;;;;;29.99;24.27;100526.72;4970066;28;20045;-77
2022/06/22 10:02:49;;;;;;;3.55;1.70;;;;;;;29.79;26.65;100526.09;4995857;28;20054;-77
2022/06/22 10:05:53;;;;;;;2.75;1.52;;;;;;;29.86;27.27;100531.75;4971611;28;20065;-77
2022/06/22 10:08:26;;;;;;;;;;;;;;;29.44;25.71;100516.06;5004415;28;20411;-77
2022/06/22 10:10:53;;;;;;;10.63;2.20;;;;;;;29.57;29.13;100526.56;4992843;28;19933;-77
2022/06/22 10:13:34;;;;;;;6.15;2.10;;;;;;;29.44;25.51;100524.25;4995217;28;20677;-76
2022/06/22 10:16:39;;;;;;;3.05;1.48;;;;;;;29.36;27.14;100525.03;4992020;28;20030;-78
2022/06/22 10:19:20;;;;;;;2.25;1.77;;;;;;;29.26;27.22;100528.81;4993533;28;20046;-75
2022/06/22 10:22:07;;;;;;;3.25;1.80;;;;;;;29.39;27.47;100523.84;4989419;28;20041;-78
2022/06/22 10:25:10;;;;;;;2.40;1.67;;;;;;;29.69;27.50;100528.91;4990922;28;20038;-76
2022/06/22 10:28:11;;;;;;;3.15;1.35;;;;;;;30.00;25.42;100528.44;4986526;28;20039;-77
2022/06/22 10:31:02;;;;;;;2.83;1.63;;;;;;;29.78;24.82;100540.72;4988355;28;20042;-79
2022/06/22 10:33:50;;;;;;;3.85;1.73;;;;;;;29.85;26.33;100535.47;4987177;28;20046;-78
2022/06/22 10:36:50;;;;;;;2.60;1.70;;;;;;;29.66;27.71;100531.94;4976505;28;20046;-79
2022/06/22 10:39:43;;;;;;;3.25;1.63;;;;;;;29.86;26.18;100543.50;4990565;28;20034;-77
2022/06/22 10:45:54;;;;;;;3.63;1.58;;;;;;;29.99;25.29;100527.56;4974914;28;20507;-77
2022/06/22 10:48:49;;;;;;;1.95;1.50;;;;;;;29.67;24.84;100541.81;4976109;28;20057;-76
2022/06/22 10:51:42;;;;;;;2.05;1.63;;;;;;;29.54;24.42;100530.47;4991563;28;20042;-77
2022/06/22 10:54:50;;;;;;;1.80;1.63;;;;;;;28.96;27.17;100525.44;4987888;28;20035;-78
2022/06/22 10:57:24;;;;;;;2.55;1.50;;;;;;;29.47;26.93;100525.78;4974920;28;20054;-78
2022/06/22 10:59:51;;;;;;;6.15;2.17;;;;;;;29.33;25.02;100517.16;4984094;28;20042;-77
2022/06/22 11:02:51;;;;;;;2.85;1.75;;;;;;;29.48;26.16;100519.31;4991886;28;20562;-78
2022/06/22 11:05:28;;;;;;;2.65;1.67;;;;;;;29.78;26.54;100523.53;4989550;28;20085;-77
2022/06/22 11:08:15;;;;;;;4.15;1.58;;;;;;;29.75;25.91;100524.69;4994600;28;20052;-77
2022/06/22 11:10:50;;;;;;;2.53;1.65;;;;;;;29.84;24.91;100520.16;4967461;28;20038;-77
2022/06/22 11:13:43;;;;;;;3.28;1.50;;;;;;;29.76;24.78;100529.09;4991248;28;20041;-76
2022/06/22 11:16:15;;;;;;;2.55;1.40;;;;;;;29.98;25.06;100522.28;4975731;28;20048;-76
2022/06/22 11:18:51;;;;;;;3.08;1.77;;;;;;;30.40;24.46;100532.44;5006645;28;20038;-78
2022/06/22 11:21:39;;;;;;;2.15;1.80;;;;;;;30.62;24.66;100529.16;4992068;28;20470;-78
2022/06/22 11:24:34;;;;;;;3.67;1.67;;;;;;;30.51;25.36;100526.69;4982926;28;20507;-79
2022/06/22 11:33:33;;;;;;;2.22;1.67;;;;;;;30.03;25.03;100521.84;4977940;28;20578;-77
2022/06/22 11:36:32;;;;;;;2.72;1.60;;;;;;;30.09;22.79;100519.31;4973743;28;20031;-77
2022/06/22 11:39:31;;;;;;;1.63;1.40;;;;;;;30.26;23.58;100518.41;4989735;28;20125;-78
2022/06/22 11:42:24;;;;;;;1.98;1.75;;;;;;;30.18;24.43;100520.22;4958519;28;20050;-76
2022/06/22 11:48:09;;;;;;;3.72;1.40;;;;;;;30.27;22.48;100509.25;5000422;28;20085;-77
2022/06/22 11:51:03;;;;;;;1.50;1.30;;;;;;;30.22;23.03;100506.13;4986571;28;20041;-76
2022/06/22 11:53:56;;;;;;;1.92;1.58;;;;;;;30.38;22.79;100504.50;4965826;28;20046;-76
2022/06/22 11:56:53;;;;;;;2.25;1.73;;;;;;;30.55;23.61;100504.41;4991156;28;20053;-76
2022/06/22 12:00:05;;;;;;;8.95;2.30;;;;;;;30.80;24.08;100501.81;4972927;28;20046;-77
2022/06/22 12:02:38;;;;;;;1.63;1.52;;;;;;;30.75;23.54;100505.03;4991508;28;20049;-78
2022/06/22 12:05:19;;;;;;;2.97;1.58;;;;;;;30.80;25.08;100502.66;4972152;28;20039;-77
2022/06/22 12:08:16;;;;;;;2.20;1.60;;;;;;;30.85;22.47;100495.84;4990692;28;20479;-77
2022/06/22 12:11:08;;;;;;;4.28;1.83;;;;;;;30.68;22.32;100494.94;4992163;28;20038;-78
2022/06/22 12:17:27;;;;;;;2.55;1.58;;;;;;;30.20;22.89;100490.97;4975415;28;20049;-77
2022/06/22 12:20:07;;;;;;;2.20;1.52;;;;;;;29.83;23.86;100481.16;4993295;28;20081;-77
2022/06/22 12:22:57;;;;;;;1.77;1.30;;;;;;;29.73;21.18;100482.28;4996560;28;20038;-77
2022/06/22 12:25:29;;;;;;;3.30;1.35;;;;;;;29.87;20.83;100490.75;4986626;28;20447;-80
2022/06/22 12:28:23;;;;;;;1.77;1.30;;;;;;;30.08;21.68;100487.66;4990022;28;20046;-79
2022/06/22 12:30:58;;;;;;;2.20;1.20;;;;;;;30.27;20.84;100486.59;4939601;28;20050;-77
2022/06/22 12:33:33;;;;;;;2.92;1.60;;;;;;;30.26;20.50;100480.25;4976427;28;20050;-77
2022/06/22 12:36:14;;;;;;;2.33;1.40;;;;;;;30.36;21.83;100468.41;4994058;28;20051;-78
2022/06/22 12:38:47;;;;;;;3.10;1.33;;;;;;;30.09;20.75;100474.88;4985109;28;20113;-80
2022/06/22 12:41:44;;;;;;;2.00;1.40;;;;;;;29.78;22.20;100478.09;5003025;28;20401;-77
2022/06/22 12:44:23;;;;;;;3.17;1.95;;;;;;;29.68;23.26;100472.75;4986353;28;20047;-77
2022/06/22 12:47:17;;;;;;;1.55;1.40;;;;;;;29.96;23.19;100473.44;4972210;28;20116;-78
2022/06/22 12:49:56;;;;;;;1.60;1.50;;;;;;;30.07;22.40;100469.56;5000044;28;20038;-78